Česky Dansk Deutsch English Español Suomi Français Magyar Italiano Nederlands norsk Polski Português svenska Türkçe

 

Het Weer

Dundee / Riverside (Groot Britanië)

21:20, 21 augustus 2016 (GMT)

NWNNE
WE
SWSSE
Home            
Dundee / Riverside Leuchars Perth / Scone Edinburgh Airport Aberdeen / Dyce Glasgow Airport Inverness / Dalcross Kinloss Lossiemouth Prestwick Airport Boulmer Spadeadam Tain Range Carlisle Newcastle Campbeltown Machrihanish West Freugh Islay Wick Tees-Side Tiree Leeming

Om een weerknop op uw website of weblog te plaatsen, copieer onderstaande code en plak die in uw pagina. In het eerste vakje staat HTML-code, in het tweede vakje UBB-code.


Add to Google

Details

Wind speed:2 bf, 4 kn, 2.1 m/s, 4.6 miles/h, 7.4 km/h
Wind direction:WNW, 290°
Visibility:Greater than 10000 m, 10 km, 32800 ft, 6.2 miles
Clouds:Ein wenig bewölkt at 4000 ft, 1219 m
Temperature:14°C, 57°F
Dew-point:12°C, 54°F
Atmospheric pressure:1011 hPa, 758.3 mmHg, 29.85 inHg, 0.998 atm
Relative humidity:87.7 %
METAR:EGPN 212120Z 29004KT 9999 FEW040 14/12 Q1011

Snelkoppelingen

Actuele weersinformatie van de hele wereld. Voeg locaties toe met het plus (+) symbool. Deze snelkoppelingen kunnen worden toegevoegd aan Google.

Lid van de Technetium groep

website free tracking
StatCounter NetStat W3C Validator

08-03-2021 09:24:04
astro.technetium.be money.technetium.be phote.technetium.be tafeltennistafel.technetium.be www.ligfiets.net